createdAt,value
2022-08-05T00:00:18.681Z,27.23
2022-08-05T00:02:50.794Z,27.62
2022-08-05T00:06:01.505Z,28.09
2022-08-05T00:08:32.639Z,28.02
2022-08-05T00:11:20.605Z,28.02
2022-08-05T00:13:57.787Z,27.97
2022-08-05T00:16:36.273Z,27.65
2022-08-05T00:19:11.751Z,27.62
2022-08-05T00:21:42.680Z,27.69
2022-08-05T00:24:11.247Z,27.60
2022-08-05T00:26:51.735Z,27.70
2022-08-05T00:29:25.759Z,27.63
2022-08-05T00:32:12.124Z,27.56
2022-08-05T00:35:04.511Z,27.56
2022-08-05T00:37:51.002Z,27.49
2022-08-05T00:40:28.397Z,27.54
2022-08-05T00:43:02.086Z,27.48
2022-08-05T00:45:38.435Z,27.43
2022-08-05T00:48:27.677Z,27.52
2022-08-05T00:50:58.508Z,27.39
2022-08-05T00:54:01.296Z,27.45
2022-08-05T00:56:14.642Z,27.28
2022-08-05T00:58:45.213Z,27.35
2022-08-05T01:01:13.368Z,27.38
2022-08-05T01:03:40.544Z,27.31
2022-08-05T01:06:14.100Z,27.17
2022-08-05T01:08:44.574Z,27.12
2022-08-05T01:11:37.221Z,27.03
2022-08-05T01:14:33.870Z,27.26
2022-08-05T01:17:07.460Z,27.03
2022-08-05T01:20:00.739Z,26.99
2022-08-05T01:23:14.226Z,26.89
2022-08-05T01:26:26.931Z,26.92
2022-08-05T01:29:30.728Z,26.76
2022-08-05T01:32:03.379Z,26.83
2022-08-05T01:34:59.322Z,26.78
2022-08-05T01:37:51.854Z,26.53
2022-08-05T01:40:29.135Z,26.37
2022-08-05T01:42:59.302Z,26.57
2022-08-05T01:45:28.249Z,26.71
2022-08-05T01:48:03.220Z,26.48
2022-08-05T01:50:40.802Z,26.52
2022-08-05T01:53:54.849Z,26.49
2022-08-05T01:56:11.323Z,26.65
2022-08-05T01:58:44.947Z,26.72
2022-08-05T02:01:15.123Z,26.55
2022-08-05T02:03:53.564Z,26.65
2022-08-05T02:06:37.738Z,26.78
2022-08-05T02:09:06.794Z,26.63
2022-08-05T02:12:03.644Z,26.39
2022-08-05T02:15:01.123Z,26.28
2022-08-05T02:18:32.235Z,26.31
2022-08-05T02:20:27.244Z,26.43
2022-08-05T02:23:01.750Z,26.49
2022-08-05T02:25:33.612Z,26.59
2022-08-05T02:28:29.074Z,26.46
2022-08-05T02:31:04.296Z,26.65
2022-08-05T02:33:38.882Z,26.58
2022-08-05T02:36:19.804Z,26.92
2022-08-05T02:38:53.702Z,26.85
2022-08-05T02:41:28.378Z,26.76
2022-08-05T02:44:02.337Z,26.91
2022-08-05T02:46:36.071Z,26.73
2022-08-05T02:49:21.978Z,26.67
2022-08-05T02:52:03.094Z,26.53
2022-08-05T02:54:35.702Z,25.92
2022-08-05T02:57:09.852Z,25.57
2022-08-05T02:59:56.359Z,25.45
2022-08-05T03:02:29.878Z,25.41
2022-08-05T03:04:59.129Z,25.31
2022-08-05T03:08:01.111Z,25.21
2022-08-05T03:10:24.563Z,25.45
2022-08-05T03:15:23.440Z,25.86
2022-08-05T03:17:55.452Z,25.95
2022-08-05T03:20:24.520Z,26.02
2022-08-05T03:22:57.079Z,26.42
2022-08-05T03:25:33.476Z,26.10
2022-08-05T03:28:14.539Z,25.86
2022-08-05T03:30:49.499Z,25.93
2022-08-05T03:33:18.646Z,25.93
2022-08-05T03:35:48.423Z,25.82
2022-08-05T03:38:17.471Z,25.84
2022-08-05T03:41:00.554Z,25.62
2022-08-05T03:44:08.930Z,25.52
2022-08-05T03:46:26.806Z,25.54
2022-08-05T03:48:58.624Z,25.80
2022-08-05T03:52:48.402Z,25.84
2022-08-05T03:55:50.144Z,25.49
2022-08-05T03:57:41.794Z,25.36
2022-08-05T04:00:15.520Z,25.31
2022-08-05T04:02:58.629Z,25.59
2022-08-05T04:05:35.603Z,25.34
2022-08-05T04:08:30.396Z,25.63
2022-08-05T04:10:56.450Z,25.91
2022-08-05T04:13:26.156Z,25.81
2022-08-05T04:16:14.390Z,25.59
2022-08-05T04:18:42.212Z,25.51
2022-08-05T04:22:05.009Z,25.47
2022-08-05T04:24:06.776Z,25.53
2022-08-05T04:26:36.214Z,25.51
2022-08-05T04:29:07.469Z,25.54
2022-08-05T04:31:38.396Z,25.54
2022-08-05T04:34:31.307Z,25.53
2022-08-05T04:36:53.448Z,25.62
2022-08-05T04:39:21.041Z,25.60
2022-08-05T04:41:51.025Z,25.60
2022-08-05T04:44:29.385Z,25.56
2022-08-05T04:46:59.210Z,25.42
2022-08-05T04:49:38.722Z,25.38
2022-08-05T04:52:15.276Z,25.68
2022-08-05T04:54:42.538Z,25.53
2022-08-05T04:57:09.508Z,25.74
2022-08-05T04:59:39.339Z,25.75
2022-08-05T05:02:37.314Z,25.73
2022-08-05T05:05:02.202Z,25.60
2022-08-05T05:07:32.409Z,25.43
2022-08-05T05:10:04.150Z,25.68
2022-08-05T05:12:31.345Z,26.19
2022-08-05T05:14:58.533Z,26.57
2022-08-05T05:17:56.929Z,26.94
2022-08-05T05:20:14.110Z,27.38
2022-08-05T05:22:43.960Z,27.42
2022-08-05T05:25:16.374Z,27.07
2022-08-05T05:27:53.526Z,27.27
2022-08-05T05:30:31.413Z,27.20
2022-08-05T05:33:08.977Z,27.10
2022-08-05T05:35:45.131Z,27.04
2022-08-05T05:38:13.336Z,27.04
2022-08-05T05:40:49.910Z,27.14
2022-08-05T05:43:27.527Z,26.96
2022-08-05T05:46:13.808Z,26.81
2022-08-05T05:48:44.284Z,26.79
2022-08-05T05:51:15.010Z,26.78
2022-08-05T05:53:54.102Z,26.90
2022-08-05T05:56:33.004Z,26.91
2022-08-05T05:59:08.037Z,26.70
2022-08-05T06:01:40.734Z,26.49
2022-08-05T06:04:24.444Z,26.43
2022-08-05T06:06:51.687Z,26.39
2022-08-05T06:09:25.420Z,26.73
2022-08-05T06:12:06.444Z,26.86
2022-08-05T06:14:36.913Z,26.86
2022-08-05T06:17:24.319Z,27.24
2022-08-05T06:19:56.554Z,27.50
2022-08-05T06:22:34.794Z,27.81
2022-08-05T06:25:25.157Z,27.76
2022-08-05T06:28:12.210Z,28.01
2022-08-05T06:30:42.011Z,28.13
2022-08-05T06:33:10.887Z,28.50
2022-08-05T06:36:07.850Z,28.46
2022-08-05T06:38:36.824Z,28.71
2022-08-05T06:41:07.919Z,28.83
2022-08-05T06:43:58.622Z,28.82
2022-08-05T06:46:30.382Z,28.68
2022-08-05T06:48:59.714Z,28.87
2022-08-05T06:51:30.910Z,28.96
2022-08-05T06:54:03.915Z,29.03
2022-08-05T06:56:34.671Z,28.91
2022-08-05T06:59:03.833Z,28.51
2022-08-05T07:01:35.776Z,28.16
2022-08-05T07:04:04.055Z,28.09
2022-08-05T07:06:32.188Z,28.13
2022-08-05T07:09:04.221Z,28.23
2022-08-05T07:11:37.034Z,28.20
2022-08-05T07:14:28.912Z,27.98
2022-08-05T07:18:01.400Z,27.94
2022-08-05T07:20:32.478Z,28.16
2022-08-05T07:22:37.515Z,27.96
2022-08-05T07:25:22.493Z,28.16
2022-08-05T07:27:59.785Z,28.67
2022-08-05T07:30:34.022Z,29.10
2022-08-05T07:33:16.435Z,29.46
2022-08-05T07:36:05.229Z,29.12
2022-08-05T07:38:42.602Z,28.59
2022-08-05T07:42:08.866Z,28.60
2022-08-05T07:44:05.838Z,28.75
2022-08-05T07:46:41.654Z,29.03
2022-08-05T07:49:15.452Z,28.93
2022-08-05T07:51:53.405Z,28.68
2022-08-05T07:54:31.412Z,28.61
2022-08-05T07:57:18.147Z,28.44
2022-08-05T07:59:52.151Z,28.22
2022-08-05T08:02:31.025Z,27.89
2022-08-05T08:05:13.506Z,27.72
2022-08-05T08:08:00.053Z,27.79
2022-08-05T08:10:29.401Z,27.75
2022-08-05T08:12:58.591Z,28.10
2022-08-05T08:16:33.619Z,28.06
2022-08-05T08:18:14.167Z,28.37
2022-08-05T08:21:00.642Z,28.30
2022-08-05T08:24:01.104Z,27.93
2022-08-05T08:26:15.755Z,28.26
2022-08-05T08:28:59.543Z,28.55
2022-08-05T08:31:29.192Z,28.58
2022-08-05T08:33:59.940Z,28.52
2022-08-05T08:36:38.495Z,28.47
2022-08-05T08:39:15.253Z,28.60
2022-08-05T08:41:50.921Z,28.65
2022-08-05T08:45:24.100Z,29.20
2022-08-05T08:47:22.209Z,29.32
2022-08-05T08:50:23.316Z,29.70
2022-08-05T08:52:54.553Z,29.62
2022-08-05T08:56:03.002Z,29.57
2022-08-05T08:58:12.825Z,29.40
2022-08-05T09:00:42.369Z,29.22
2022-08-05T09:03:16.103Z,29.05
2022-08-05T09:06:07.613Z,28.74
2022-08-05T09:08:34.772Z,28.94
2022-08-05T09:11:01.854Z,28.96
2022-08-05T09:13:31.796Z,29.00
2022-08-05T09:16:17.024Z,29.25
2022-08-05T09:18:44.462Z,29.55
2022-08-05T09:21:20.494Z,29.87
2022-08-05T09:24:08.749Z,30.13
2022-08-05T09:26:37.423Z,30.38
2022-08-05T09:29:09.132Z,30.12
2022-08-05T09:32:40.147Z,30.19
2022-08-05T09:34:23.341Z,30.86
2022-08-05T09:36:55.280Z,30.88
2022-08-05T09:39:39.275Z,30.61
2022-08-05T09:42:20.224Z,30.54
2022-08-05T09:44:56.470Z,30.94
2022-08-05T09:47:48.096Z,30.67
2022-08-05T09:50:17.932Z,31.09
2022-08-05T09:53:01.420Z,30.90
2022-08-05T09:55:57.383Z,30.99
2022-08-05T09:58:24.688Z,31.31
2022-08-05T10:01:14.774Z,31.29
2022-08-05T10:04:10.497Z,31.49
2022-08-05T10:06:40.666Z,31.52
2022-08-05T10:09:27.535Z,31.27
2022-08-05T10:12:18.721Z,31.06
2022-08-05T10:15:20.428Z,31.25
2022-08-05T10:18:16.790Z,31.66
2022-08-05T10:20:52.660Z,32.01
2022-08-05T10:23:55.802Z,31.81
2022-08-05T10:26:15.057Z,31.85
2022-08-05T10:28:47.195Z,31.79
2022-08-05T10:32:47.741Z,32.14
2022-08-05T10:34:07.174Z,31.89
2022-08-05T10:36:40.932Z,32.10
2022-08-05T10:39:25.285Z,32.36
2022-08-05T10:42:33.582Z,32.08
2022-08-05T10:45:15.984Z,32.28
2022-08-05T10:48:30.340Z,31.72
2022-08-05T10:51:22.375Z,32.11
2022-08-05T10:54:01.042Z,31.88
2022-08-05T10:56:49.509Z,31.96
2022-08-05T11:00:02.939Z,31.53
2022-08-05T11:02:34.602Z,32.17
2022-08-05T11:05:09.436Z,31.85
2022-08-05T11:08:34.339Z,31.78
2022-08-05T11:11:44.736Z,31.78
2022-08-05T11:17:58.034Z,30.84
2022-08-05T11:20:39.240Z,31.53
2022-08-05T11:24:03.182Z,32.18
2022-08-05T11:26:28.281Z,32.21
2022-08-05T11:28:56.805Z,32.48
2022-08-05T11:31:57.147Z,32.57
2022-08-05T11:34:50.985Z,32.48
2022-08-05T11:38:36.715Z,32.64
2022-08-05T11:41:13.854Z,33.33
2022-08-05T11:44:10.669Z,33.24
2022-08-05T11:47:10.296Z,33.64
2022-08-05T11:49:34.585Z,33.30
2022-08-05T11:52:11.431Z,32.57
2022-08-05T11:54:41.288Z,32.32
2022-08-05T11:57:25.467Z,32.83
2022-08-05T11:59:54.667Z,32.51
2022-08-05T12:02:31.765Z,32.39
2022-08-05T12:05:07.010Z,33.27
2022-08-05T12:08:07.374Z,33.32
2022-08-05T12:10:38.517Z,32.98
2022-08-05T12:13:28.020Z,33.12
2022-08-05T12:16:14.484Z,32.55
2022-08-05T12:18:48.707Z,32.62
2022-08-05T12:21:23.655Z,32.25
2022-08-05T12:24:04.570Z,31.55
2022-08-05T12:26:36.162Z,31.30
2022-08-05T12:29:15.837Z,31.28
2022-08-05T12:31:54.316Z,31.15
2022-08-05T12:34:32.291Z,31.20
2022-08-05T12:37:06.510Z,31.60
2022-08-05T12:39:37.476Z,31.63
2022-08-05T12:42:17.546Z,31.58
2022-08-05T12:44:46.037Z,31.67
2022-08-05T12:47:30.699Z,31.59
2022-08-05T12:50:02.338Z,32.06
2022-08-05T12:52:39.579Z,32.36
2022-08-05T12:55:28.543Z,31.58
2022-08-05T12:58:48.202Z,31.76
2022-08-05T13:02:03.860Z,31.78
2022-08-05T13:03:42.055Z,31.37
2022-08-05T13:06:19.877Z,30.89
2022-08-05T13:08:52.010Z,30.81
2022-08-05T13:11:25.352Z,30.72
2022-08-05T13:14:24.717Z,30.73
2022-08-05T13:17:16.629Z,30.81
2022-08-05T13:20:17.259Z,30.73
2022-08-05T13:22:52.367Z,31.22
2022-08-05T13:25:22.139Z,31.31
2022-08-05T13:28:08.056Z,31.12
2022-08-05T13:30:39.173Z,31.09
2022-08-05T13:33:06.330Z,30.56
2022-08-05T13:35:47.088Z,30.84
2022-08-05T13:38:31.192Z,31.13
2022-08-05T13:41:03.941Z,30.62
2022-08-05T13:43:44.683Z,30.57
2022-08-05T13:46:14.397Z,30.35
2022-08-05T13:49:00.240Z,30.53
2022-08-05T13:51:36.548Z,30.84
2022-08-05T13:54:12.925Z,30.43
2022-08-05T13:56:45.173Z,29.79
2022-08-05T13:59:23.828Z,30.18
2022-08-05T14:01:57.784Z,30.11
2022-08-05T14:04:51.760Z,29.58
2022-08-05T14:07:59.576Z,30.01
2022-08-05T14:10:30.826Z,29.84
2022-08-05T14:12:59.760Z,29.98
2022-08-05T14:16:08.477Z,30.28
2022-08-05T14:18:18.305Z,29.62
2022-08-05T14:20:54.461Z,29.73
2022-08-05T14:23:25.939Z,30.10
2022-08-05T14:25:58.763Z,29.90
2022-08-05T14:28:30.333Z,29.60
2022-08-05T14:30:59.450Z,29.16
2022-08-05T14:33:27.876Z,29.13
2022-08-05T14:36:14.876Z,29.45
2022-08-05T14:38:42.242Z,29.46
2022-08-05T14:41:11.735Z,29.83
2022-08-05T14:43:58.810Z,29.67
2022-08-05T14:46:30.698Z,29.17
2022-08-05T14:49:06.315Z,29.62
2022-08-05T14:51:37.636Z,29.70
2022-08-05T14:54:28.291Z,29.57
2022-08-05T14:56:54.929Z,29.25
2022-08-05T14:59:22.548Z,29.08
2022-08-05T15:01:50.419Z,28.93
2022-08-05T15:04:20.602Z,28.97
2022-08-05T15:06:49.668Z,29.34
2022-08-05T15:09:52.223Z,29.35
2022-08-05T15:12:11.435Z,28.63
2022-08-05T15:14:49.625Z,28.71
2022-08-05T15:17:46.502Z,28.48
2022-08-05T15:20:18.919Z,28.48
2022-08-05T15:22:53.971Z,28.10
2022-08-05T15:25:51.185Z,28.34
2022-08-05T15:28:14.480Z,28.44
2022-08-05T15:30:43.788Z,28.53
2022-08-05T15:33:56.853Z,28.64
2022-08-05T15:36:03.422Z,28.53
2022-08-05T15:38:36.562Z,28.32
2022-08-05T15:41:23.102Z,28.43
2022-08-05T15:43:55.005Z,28.55
2022-08-05T15:46:24.165Z,28.33
2022-08-05T15:48:58.579Z,28.25
2022-08-05T15:52:09.996Z,27.93
2022-08-05T15:54:16.671Z,27.87
2022-08-05T15:56:43.758Z,26.65
2022-08-05T15:59:19.830Z,26.00
2022-08-05T16:01:53.094Z,25.77
2022-08-05T16:04:25.383Z,25.61
2022-08-05T16:06:55.516Z,25.44
2022-08-05T16:09:24.802Z,25.36
2022-08-05T16:11:54.040Z,25.01
2022-08-05T16:14:23.268Z,24.88
2022-08-05T16:16:50.840Z,24.97
2022-08-05T16:19:25.538Z,24.84
2022-08-05T16:22:07.301Z,24.53
2022-08-05T16:24:51.728Z,24.49
2022-08-05T16:27:19.647Z,24.55
2022-08-05T16:30:08.456Z,24.53
2022-08-05T16:32:52.092Z,24.52
2022-08-05T16:35:19.892Z,24.39
2022-08-05T16:38:03.118Z,24.39
2022-08-05T16:40:48.086Z,24.56
2022-08-05T16:43:27.555Z,24.47
2022-08-05T16:46:05.101Z,24.41
2022-08-05T16:48:38.321Z,24.43
2022-08-05T16:51:08.946Z,24.49
2022-08-05T16:54:05.650Z,24.24
2022-08-05T16:56:30.543Z,24.28
2022-08-05T16:59:00.872Z,24.24
2022-08-05T17:01:52.910Z,24.19
2022-08-05T17:04:27.623Z,24.16
2022-08-05T17:07:03.625Z,24.18
2022-08-05T17:09:58.210Z,24.13
2022-08-05T17:12:50.522Z,24.12
2022-08-05T17:15:19.204Z,24.20
2022-08-05T17:17:54.810Z,24.13
2022-08-05T17:20:22.530Z,24.22
2022-08-05T17:22:55.615Z,24.22
2022-08-05T17:25:39.279Z,24.13
2022-08-05T17:28:06.818Z,23.79
2022-08-05T17:30:50.648Z,23.80
2022-08-05T17:33:19.968Z,23.66
2022-08-05T17:36:07.465Z,23.53
2022-08-05T17:38:34.369Z,23.42
2022-08-05T17:41:02.022Z,23.45
2022-08-05T17:43:47.257Z,23.44
2022-08-05T17:46:18.362Z,23.46
2022-08-05T17:48:47.706Z,23.29
2022-08-05T17:51:21.699Z,23.18
2022-08-05T17:53:54.464Z,23.12
2022-08-05T17:56:22.713Z,23.04
2022-08-05T17:58:51.236Z,22.93
2022-08-05T18:01:19.640Z,22.91
2022-08-05T18:03:58.677Z,22.80
2022-08-05T18:06:31.705Z,22.81
2022-08-05T18:08:59.547Z,22.83
2022-08-05T18:11:33.261Z,22.85
2022-08-05T18:14:04.297Z,22.67
2022-08-05T18:16:35.716Z,22.71
2022-08-05T18:19:22.654Z,22.60
2022-08-05T18:22:08.369Z,22.71
2022-08-05T18:24:37.836Z,22.67
2022-08-05T18:27:12.490Z,22.61
2022-08-05T18:29:48.216Z,22.49
2022-08-05T18:32:21.008Z,22.50
2022-08-05T18:34:56.219Z,22.51
2022-08-05T18:37:34.696Z,22.46
2022-08-05T18:41:54.236Z,22.54
2022-08-05T18:43:00.324Z,22.61
2022-08-05T18:45:41.861Z,22.59
2022-08-05T18:48:11.054Z,22.46
2022-08-05T18:50:56.692Z,22.43
2022-08-05T18:53:29.521Z,22.43
2022-08-05T18:56:01.905Z,22.45
2022-08-05T18:58:39.867Z,22.48
2022-08-05T19:01:10.192Z,22.47
2022-08-05T19:03:55.513Z,22.42
2022-08-05T19:06:34.177Z,22.42
2022-08-05T19:09:10.819Z,22.47
2022-08-05T19:12:01.063Z,22.44
2022-08-05T19:14:53.341Z,22.45
2022-08-05T19:17:12.924Z,22.42
2022-08-05T19:19:46.330Z,22.44
2022-08-05T19:22:16.915Z,22.48
2022-08-05T19:24:56.549Z,22.50
2022-08-05T19:27:30.210Z,22.46
2022-08-05T19:29:58.309Z,22.47
2022-08-05T19:32:26.199Z,22.48
2022-08-05T19:34:55.955Z,22.47
2022-08-05T19:37:29.843Z,22.48
2022-08-05T19:40:15.098Z,22.51
2022-08-05T19:42:42.382Z,22.56
2022-08-05T19:45:30.469Z,22.53
2022-08-05T19:48:01.067Z,22.45
2022-08-05T19:50:28.723Z,22.66
2022-08-05T19:52:56.805Z,22.66
2022-08-05T19:56:14.308Z,22.62
2022-08-05T19:58:28.427Z,22.57
2022-08-05T20:00:56.908Z,22.59
2022-08-05T20:03:26.125Z,22.57
2022-08-05T20:05:56.646Z,22.59
2022-08-05T20:08:24.573Z,22.58
2022-08-05T20:10:53.164Z,22.51
2022-08-05T20:13:29.841Z,22.54
2022-08-05T20:15:57.731Z,22.47
2022-08-05T20:18:33.120Z,22.50
2022-08-05T20:21:04.702Z,22.46
2022-08-05T20:23:39.357Z,22.35
2022-08-05T20:26:17.257Z,22.34
2022-08-05T20:28:50.482Z,22.39
2022-08-05T20:31:21.971Z,22.30
2022-08-05T20:33:56.352Z,22.18
2022-08-05T20:36:24.335Z,22.22
2022-08-05T20:38:53.717Z,22.20
2022-08-05T20:41:24.235Z,22.07
2022-08-05T20:44:00.428Z,22.00
2022-08-05T20:46:33.579Z,22.10
2022-08-05T20:49:00.570Z,22.07
2022-08-05T20:51:29.763Z,22.10
2022-08-05T20:54:01.317Z,21.96
2022-08-05T20:56:32.946Z,22.03
2022-08-05T20:59:19.253Z,22.08
2022-08-05T21:01:57.364Z,21.99
2022-08-05T21:04:26.893Z,21.74
2022-08-05T21:06:54.840Z,21.77
2022-08-05T21:09:22.985Z,21.81
2022-08-05T21:12:07.229Z,21.73
2022-08-05T21:14:36.448Z,21.88
2022-08-05T21:17:05.416Z,21.97
2022-08-05T21:19:46.898Z,21.76
2022-08-05T21:22:17.675Z,21.90
2022-08-05T21:24:51.668Z,21.66
2022-08-05T21:27:24.771Z,21.82
2022-08-05T21:29:55.269Z,21.78
2022-08-05T21:32:27.637Z,21.80
2022-08-05T21:35:16.829Z,21.69
2022-08-05T21:37:47.207Z,21.79
2022-08-05T21:40:16.644Z,21.69
2022-08-05T21:42:45.628Z,21.75
2022-08-05T21:45:24.013Z,21.76
2022-08-05T21:47:56.055Z,21.63
2022-08-05T21:50:26.506Z,21.63
2022-08-05T21:52:58.957Z,21.50
2022-08-05T21:56:00.865Z,21.57
2022-08-05T21:58:30.834Z,21.41
2022-08-05T22:01:00.423Z,21.48
2022-08-05T22:03:48.924Z,21.48
2022-08-05T22:06:22.314Z,21.38
2022-08-05T22:08:52.136Z,21.41
2022-08-05T22:11:34.772Z,21.40
2022-08-05T22:14:37.337Z,21.25
2022-08-05T22:16:56.994Z,21.22
2022-08-05T22:20:01.592Z,21.10
2022-08-05T22:22:15.912Z,21.01
2022-08-05T22:25:01.900Z,20.99
2022-08-05T22:28:10.622Z,20.98
2022-08-05T22:30:34.910Z,20.83
2022-08-05T22:33:15.591Z,20.79
2022-08-05T22:35:49.236Z,20.67
2022-08-05T22:38:19.729Z,20.75
2022-08-05T22:40:49.977Z,20.83
2022-08-05T22:43:36.689Z,20.73
2022-08-05T22:46:13.060Z,20.55
2022-08-05T22:48:48.155Z,20.48
2022-08-05T22:51:16.110Z,20.47
2022-08-05T22:53:51.057Z,20.58
2022-08-05T22:56:30.449Z,20.56
2022-08-05T22:59:02.914Z,20.41
2022-08-05T23:02:04.480Z,20.42
2022-08-05T23:04:18.900Z,20.33
2022-08-05T23:06:46.168Z,20.29
2022-08-05T23:09:52.744Z,20.37
2022-08-05T23:12:02.406Z,20.25
2022-08-05T23:14:32.057Z,20.26
2022-08-05T23:17:24.347Z,20.36
2022-08-05T23:20:02.471Z,20.40
2022-08-05T23:22:30.865Z,20.21
2022-08-05T23:24:58.195Z,20.26
2022-08-05T23:27:31.362Z,20.15
2022-08-05T23:30:10.678Z,20.24
2022-08-05T23:32:37.974Z,20.13
2022-08-05T23:35:12.627Z,20.09
2022-08-05T23:37:39.659Z,19.93
2022-08-05T23:40:09.593Z,19.91
2022-08-05T23:42:38.872Z,19.76
2022-08-05T23:45:14.438Z,19.84
2022-08-05T23:47:47.746Z,19.57
2022-08-05T23:50:17.125Z,19.54
2022-08-05T23:52:49.758Z,19.64
2022-08-05T23:55:19.120Z,19.79
2022-08-05T23:57:48.953Z,19.54
